Time;durP1;ratioP1;P1;durP2;ratioP2;P2;SDS_P1;SDS_P2;PMS_P1;PMS_P2;Temp;Humidity;BMP_temperature;BMP_pressure;BME280_temperature;BME280_humidity;BME280_pressure;Samples;Min_cycle;Max_cycle;Signal;HPM_P1;HPM_P2
2022/10/14 00:01:32;;;;;;;;;;;8.90;99.90;;;;;;5068062;28;19987;-76
2022/10/14 00:03:58;;;;;;;;;;;8.90;99.90;;;;;;5083231;28;19928;-77
2022/10/14 00:06:28;;;;;;;;;;;8.80;99.90;;;;;;5057924;28;19925;-75
2022/10/14 00:08:54;;;;;;;;;;;8.70;99.90;;;;;;5057369;28;20372;-76
2022/10/14 00:11:20;;;;;;;;;;;8.70;99.90;;;;;;5108108;28;19924;-76
2022/10/14 00:13:46;;;;;;;;;;;8.70;99.90;;;;;;5072680;28;20391;-76
2022/10/14 00:16:16;;;;;;;;;;;8.70;99.90;;;;;;5091450;28;20018;-76
2022/10/14 00:18:42;;;;;;;;;;;8.70;99.90;;;;;;5108010;28;19928;-76
2022/10/14 00:21:07;;;;;;;;;;;8.70;99.90;;;;;;5091729;28;20073;-76
2022/10/14 00:23:33;;;;;;;;;;;8.70;99.90;;;;;;5041435;28;19936;-81
2022/10/14 00:25:58;;;;;;;;;;;8.70;99.90;;;;;;5084633;28;19929;-76
2022/10/14 00:28:24;;;;;;;;;;;8.70;99.90;;;;;;5067248;28;19988;-76
2022/10/14 00:30:57;;;;;;;;;;;8.70;99.90;;;;;;5091386;28;19928;-76
2022/10/14 00:33:23;;;;;;;;;;;8.70;99.90;;;;;;5065851;28;19929;-77
2022/10/14 00:35:56;;;;;;;;;;;8.60;99.90;;;;;;5052401;28;19931;-76
2022/10/14 00:38:22;;;;;;;;;;;8.60;99.90;;;;;;5088460;28;19925;-76
2022/10/14 00:40:47;;;;;;;;;;;8.60;99.90;;;;;;5091444;28;20384;-76
2022/10/14 00:43:13;;;;;;;;;;;8.50;99.90;;;;;;5072662;28;19932;-76
2022/10/14 00:45:39;;;;;;;;;;;8.60;99.90;;;;;;5073636;28;19925;-78
2022/10/14 00:48:04;;;;;;;;;;;8.50;99.90;;;;;;5075502;28;19924;-76
2022/10/14 00:50:31;;;;;;;;;;;8.50;99.90;;;;;;5075051;28;20402;-76
2022/10/14 00:52:57;;;;;;;;;;;8.50;99.90;;;;;;5073477;28;19940;-77
2022/10/14 00:55:24;;;;;;;;;;;8.50;99.90;;;;;;5073827;28;20427;-76
2022/10/14 00:57:49;;;;;;;;;;;8.50;99.90;;;;;;5073200;28;19929;-76
2022/10/14 01:00:17;;;;;;;;;;;8.50;99.90;;;;;;5074292;28;19925;-76
2022/10/14 01:02:42;;;;;;;;;;;8.50;99.90;;;;;;5107306;28;19968;-78
2022/10/14 01:05:10;;;;;;;;;;;8.50;99.90;;;;;;5066109;28;19975;-76
2022/10/14 01:07:35;;;;;;;;;;;8.50;99.90;;;;;;5060921;28;20384;-76
2022/10/14 01:10:11;;;;;;;;;;;8.50;99.90;;;;;;5073150;28;20024;-76
2022/10/14 01:12:55;;;;;;;;;;;8.50;99.90;;;;;;5074611;28;19924;-76
2022/10/14 01:15:26;;;;;;;;;;;8.50;99.90;;;;;;5052956;28;20288;-76
2022/10/14 01:18:10;;;;;;;;;;;8.50;99.90;;;;;;5062470;28;19925;-76
2022/10/14 01:20:48;;;;;;;;;;;8.40;99.90;;;;;;5072784;28;19929;-78
2022/10/14 01:23:36;;;;;;;;;;;8.40;99.90;;;;;;5106425;28;19924;-76
2022/10/14 01:26:05;;;;;;;;;;;8.40;99.90;;;;;;5072912;28;20020;-75
2022/10/14 01:28:47;;;;;;;;;;;8.30;99.90;;;;;;5074365;28;19928;-76
2022/10/14 01:31:16;;;;;;;;;;;8.30;99.90;;;;;;5073015;28;20288;-76
2022/10/14 01:33:44;;;;;;;;;;;8.30;99.90;;;;;;5073145;28;20344;-77
2022/10/14 01:36:15;;;;;;;;;;;8.30;99.90;;;;;;5070907;28;20012;-76
2022/10/14 01:38:46;;;;;;;;;;;8.20;99.90;;;;;;5053378;28;19976;-82
2022/10/14 01:41:24;;;;;;;;;;;8.20;99.90;;;;;;5053477;28;19983;-76
2022/10/14 01:43:50;;;;;;;;;;;8.20;99.90;;;;;;5085865;28;19929;-76
2022/10/14 01:46:17;;;;;;;;;;;8.10;99.90;;;;;;5054677;28;20436;-77
2022/10/14 01:48:45;;;;;;;;;;;8.10;99.90;;;;;;5072834;28;19934;-76
2022/10/14 01:51:13;;;;;;;;;;;8.20;99.90;;;;;;5069776;28;19924;-76
2022/10/14 01:53:40;;;;;;;;;;;8.10;99.90;;;;;;5061374;28;20365;-76
2022/10/14 01:56:06;;;;;;;;;;;8.10;99.90;;;;;;5064314;28;19986;-77
2022/10/14 01:58:33;;;;;;;;;;;8.00;99.90;;;;;;5068372;28;19928;-76
2022/10/14 02:01:01;;;;;;;;;;;8.00;99.90;;;;;;5073925;28;19932;-76
2022/10/14 02:03:36;;;;;;;;;;;8.00;99.90;;;;;;5106704;28;19978;-77
2022/10/14 02:06:04;;;;;;;;;;;8.00;99.90;;;;;;5073516;28;20014;-75
2022/10/14 02:08:42;;;;;;;;;;;8.00;99.90;;;;;;5061772;28;19925;-76
2022/10/14 02:11:17;;;;;;;;;;;8.00;99.90;;;;;;5086177;28;19929;-77
2022/10/14 02:14:02;;;;;;;;;;;8.00;99.90;;;;;;5052400;28;19928;-77
2022/10/14 02:16:33;;;;;;;;;;;8.00;99.90;;;;;;5052967;28;20361;-76
2022/10/14 02:19:07;;;;;;;;;;;7.90;99.90;;;;;;5054025;28;19948;-76
2022/10/14 02:21:40;;;;;;;;;;;7.90;99.90;;;;;;5086348;28;20007;-77
2022/10/14 02:24:17;;;;;;;;;;;7.90;99.90;;;;;;5067116;28;20015;-76
2022/10/14 02:26:43;;;;;;;;;;;7.90;99.90;;;;;;5072249;28;20298;-79
2022/10/14 02:29:10;;;;;;;;;;;7.90;99.90;;;;;;5072596;28;19924;-76
2022/10/14 02:31:36;;;;;;;;;;;7.90;99.90;;;;;;5072752;28;19924;-76
2022/10/14 02:34:04;;;;;;;;;;;7.80;99.90;;;;;;5044882;28;19935;-76
2022/10/14 02:36:30;;;;;;;;;;;7.80;99.90;;;;;;5071890;28;20012;-76
2022/10/14 02:38:57;;;;;;;;;;;7.80;99.90;;;;;;5070883;28;20689;-76
2022/10/14 02:41:26;;;;;;;;;;;7.90;99.90;;;;;;5072414;28;20321;-76
2022/10/14 02:43:51;;;;;;;;;;;7.80;99.90;;;;;;5070598;28;19925;-75
2022/10/14 02:46:21;;;;;;;;;;;7.90;99.90;;;;;;5105843;28;19931;-76
2022/10/14 02:48:47;;;;;;;;;;;7.80;99.90;;;;;;5062532;28;19928;-77
2022/10/14 02:51:12;;;;;;;;;;;7.80;99.90;;;;;;5072130;28;20720;-76
2022/10/14 02:53:38;;;;;;;;;;;7.90;99.90;;;;;;5071769;28;19928;-76
2022/10/14 02:56:03;;;;;;;;;;;7.90;99.90;;;;;;5070082;28;20001;-76
2022/10/14 02:58:29;;;;;;;;;;;7.90;99.90;;;;;;5070803;28;19933;-76
2022/10/14 03:00:55;;;;;;;;;;;7.90;99.90;;;;;;5054814;28;19924;-76
2022/10/14 03:03:21;;;;;;;;;;;7.90;99.90;;;;;;5072150;28;20410;-76
2022/10/14 03:05:46;;;;;;;;;;;7.90;99.90;;;;;;5070747;28;19935;-82
2022/10/14 03:08:12;;;;;;;;;;;8.00;99.90;;;;;;5105474;28;20394;-76
2022/10/14 03:10:37;;;;;;;;;;;7.80;99.90;;;;;;5070757;28;19936;-76
2022/10/14 03:13:03;;;;;;;;;;;7.90;99.90;;;;;;5054534;28;19962;-77
2022/10/14 03:15:28;;;;;;;;;;;7.80;99.90;;;;;;5053713;28;19931;-76
2022/10/14 03:17:54;;;;;;;;;;;7.80;99.90;;;;;;5061381;28;19925;-76
2022/10/14 03:20:19;;;;;;;;;;;7.90;99.90;;;;;;5062356;28;20630;-76
2022/10/14 03:22:45;;;;;;;;;;;7.90;99.90;;;;;;5054649;28;19925;-76
2022/10/14 03:25:11;;;;;;;;;;;7.90;99.90;;;;;;5073385;28;19930;-76
2022/10/14 03:27:36;;;;;;;;;;;7.90;99.90;;;;;;5069258;28;19960;-78
2022/10/14 03:30:02;;;;;;;;;;;7.90;99.90;;;;;;5089311;28;19946;-76
2022/10/14 03:32:28;;;;;;;;;;;7.90;99.90;;;;;;5074512;28;20367;-77
2022/10/14 03:34:53;;;;;;;;;;;7.90;99.90;;;;;;5091509;28;19924;-76
2022/10/14 03:37:19;;;;;;;;;;;7.90;99.90;;;;;;5072641;28;19924;-76
2022/10/14 03:39:44;;;;;;;;;;;7.90;99.90;;;;;;5057729;28;19930;-76
2022/10/14 03:42:10;;;;;;;;;;;7.90;99.90;;;;;;5032920;28;19971;-76
2022/10/14 03:44:35;;;;;;;;;;;7.90;99.90;;;;;;5074275;28;20003;-76
2022/10/14 03:47:01;;;;;;;;;;;7.90;99.90;;;;;;5082561;28;19932;-79
2022/10/14 03:49:26;;;;;;;;;;;7.90;99.90;;;;;;5064287;28;19931;-76
2022/10/14 03:51:52;;;;;;;;;;;7.90;99.90;;;;;;5074320;28;20069;-76
2022/10/14 03:54:17;;;;;;;;;;;7.90;99.90;;;;;;5073837;28;20276;-78
2022/10/14 03:56:43;;;;;;;;;;;8.00;99.90;;;;;;5071934;28;19924;-76
2022/10/14 03:59:09;;;;;;;;;;;8.00;99.90;;;;;;5079488;28;19996;-76
2022/10/14 04:01:34;;;;;;;;;;;8.00;99.90;;;;;;5074266;28;19931;-76
2022/10/14 04:04:00;;;;;;;;;;;8.00;99.90;;;;;;5091023;28;19935;-76
2022/10/14 04:06:25;;;;;;;;;;;8.10;99.90;;;;;;5074189;28;19924;-75
2022/10/14 04:08:51;;;;;;;;;;;8.10;99.90;;;;;;5073667;28;20356;-76
2022/10/14 04:11:16;;;;;;;;;;;8.20;99.90;;;;;;5061203;28;19931;-77
2022/10/14 04:13:44;;;;;;;;;;;8.30;99.90;;;;;;5069852;28;20367;-77
2022/10/14 04:16:10;;;;;;;;;;;8.40;99.90;;;;;;5078051;28;19924;-75
2022/10/14 04:18:35;;;;;;;;;;;8.50;99.90;;;;;;5077679;28;20371;-76
2022/10/14 04:21:02;;;;;;;;;;;8.50;99.90;;;;;;5082752;28;19968;-76
2022/10/14 04:23:28;;;;;;;;;;;8.60;99.90;;;;;;5108563;28;19932;-76
2022/10/14 04:25:53;;;;;;;;;;;8.70;99.90;;;;;;5094853;28;21617;-83
2022/10/14 04:28:19;;;;;;;;;;;8.70;99.90;;;;;;5077931;28;19924;-76
2022/10/14 04:30:45;;;;;;;;;;;8.80;99.90;;;;;;5071517;28;19925;-76
2022/10/14 04:33:10;;;;;;;;;;;8.90;99.90;;;;;;5088116;28;19924;-76
2022/10/14 04:35:36;;;;;;;;;;;8.90;99.90;;;;;;5045986;28;19935;-76
2022/10/14 04:38:01;;;;;;;;;;;8.90;99.90;;;;;;5063554;28;19932;-76
2022/10/14 04:40:27;;;;;;;;;;;8.90;99.90;;;;;;5073253;28;20433;-76
2022/10/14 04:42:56;;;;;;;;;;;9.00;99.90;;;;;;5075286;28;19971;-76
2022/10/14 04:45:22;;;;;;;;;;;9.00;99.90;;;;;;5111191;28;19924;-76
2022/10/14 04:47:47;;;;;;;;;;;9.00;99.90;;;;;;5058954;28;19936;-76
2022/10/14 04:50:13;;;;;;;;;;;9.10;99.90;;;;;;5111322;28;19935;-76
2022/10/14 04:52:39;;;;;;;;;;;9.10;99.90;;;;;;5076643;28;19924;-76
2022/10/14 04:55:04;;;;;;;;;;;9.20;99.90;;;;;;5060003;28;20372;-76
2022/10/14 04:57:30;;;;;;;;;;;9.20;99.90;;;;;;5095170;28;20011;-76
2022/10/14 04:59:55;;;;;;;;;;;9.20;99.90;;;;;;5095116;28;20477;-76
2022/10/14 05:02:21;;;;;;;;;;;9.30;99.90;;;;;;5074872;28;19924;-76
2022/10/14 05:04:46;;;;;;;;;;;9.40;99.90;;;;;;5074674;28;19924;-76
2022/10/14 05:07:12;;;;;;;;;;;9.40;99.90;;;;;;5076601;28;19928;-76
2022/10/14 05:09:38;;;;;;;;;;;9.40;99.90;;;;;;5076341;28;20303;-78
2022/10/14 05:12:03;;;;;;;;;;;9.40;99.90;;;;;;5085326;28;19929;-76
2022/10/14 05:14:29;;;;;;;;;;;9.50;99.90;;;;;;5094834;28;19924;-77
2022/10/14 05:16:54;;;;;;;;;;;9.50;99.90;;;;;;5076717;28;19960;-76
2022/10/14 05:19:20;;;;;;;;;;;9.60;99.90;;;;;;5094647;28;19924;-76
2022/10/14 05:21:45;;;;;;;;;;;9.60;99.90;;;;;;5075888;28;19990;-76
2022/10/14 05:24:11;;;;;;;;;;;9.60;99.90;;;;;;5069187;28;19925;-76
2022/10/14 05:26:37;;;;;;;;;;;9.70;99.90;;;;;;5056271;28;19924;-76
2022/10/14 05:29:03;;;;;;;;;;;9.70;99.90;;;;;;5072779;28;19960;-77
2022/10/14 05:31:29;;;;;;;;;;;9.70;99.90;;;;;;5054069;28;20015;-77
2022/10/14 05:33:54;;;;;;;;;;;9.70;99.90;;;;;;5067666;28;20003;-76
2022/10/14 05:36:20;;;;;;;;;;;9.70;99.90;;;;;;5099090;28;19925;-76
2022/10/14 05:38:45;;;;;;;;;;;9.70;99.90;;;;;;5069413;28;19928;-79
2022/10/14 05:41:11;;;;;;;;;;;9.70;99.90;;;;;;5056612;28;19978;-76
2022/10/14 05:43:37;;;;;;;;;;;9.70;99.90;;;;;;5073339;28;20019;-77
2022/10/14 05:46:02;;;;;;;;;;;9.70;99.90;;;;;;5072733;28;19939;-76
2022/10/14 05:48:28;;;;;;;;;;;9.70;99.90;;;;;;5073690;28;19929;-77
2022/10/14 05:50:53;;;;;;;;;;;9.70;99.90;;;;;;5056209;28;19963;-77
2022/10/14 05:53:19;;;;;;;;;;;9.70;99.90;;;;;;5072210;28;19925;-76
2022/10/14 05:55:45;;;;;;;;;;;9.70;99.90;;;;;;5071770;28;20404;-76
2022/10/14 05:58:10;;;;;;;;;;;9.60;99.90;;;;;;5073018;28;20357;-76
2022/10/14 06:00:36;;;;;;;;;;;9.50;99.90;;;;;;5069111;28;19953;-76
2022/10/14 06:03:01;;;;;;;;;;;9.40;99.90;;;;;;5071752;28;20384;-76
2022/10/14 06:05:27;;;;;;;;;;;9.40;99.90;;;;;;5064376;28;19955;-77
2022/10/14 06:07:53;;;;;;;;;;;9.40;99.90;;;;;;5057418;28;19929;-77
2022/10/14 06:10:18;;;;;;;;;;;9.50;99.90;;;;;;5052397;28;19975;-76
2022/10/14 06:12:44;;;;;;;;;;;9.40;99.90;;;;;;5066690;28;19931;-77
2022/10/14 06:15:09;;;;;;;;;;;9.50;99.90;;;;;;5070835;28;19931;-76
2022/10/14 06:17:35;;;;;;;;;;;9.50;99.90;;;;;;5071848;28;19931;-75
2022/10/14 06:20:01;;;;;;;;;;;9.50;99.90;;;;;;5072526;28;20326;-75
2022/10/14 06:22:27;;;;;;;;;;;9.60;99.90;;;;;;5089492;28;19924;-76
2022/10/14 06:24:53;;;;;;;;;;;9.60;99.90;;;;;;5086343;28;20418;-76
2022/10/14 06:27:19;;;;;;;;;;;9.60;99.90;;;;;;5059963;28;19932;-76
2022/10/14 06:29:45;;;;;;;;;;;9.60;99.90;;;;;;5070668;28;19931;-75
2022/10/14 06:32:11;;;;;;;;;;;9.70;99.90;;;;;;5069992;28;19924;-75
2022/10/14 06:34:36;;;;;;;;;;;9.70;99.90;;;;;;5072017;28;19978;-77
2022/10/14 06:37:02;;;;;;;;;;;9.70;99.90;;;;;;5055687;28;20350;-75
2022/10/14 06:39:28;;;;;;;;;;;9.80;99.90;;;;;;5054803;28;20019;-76
2022/10/14 06:41:53;;;;;;;;;;;9.80;99.90;;;;;;5059129;28;19971;-76
2022/10/14 06:44:19;;;;;;;;;;;9.80;99.90;;;;;;5071681;28;19986;-75
2022/10/14 06:46:45;;;;;;;;;;;9.80;99.90;;;;;;5071748;28;19925;-76
2022/10/14 06:49:11;;;;;;;;;;;9.80;99.90;;;;;;5072039;28;20336;-76
2022/10/14 06:51:38;;;;;;;;;;;9.80;99.90;;;;;;5066271;28;19979;-79
2022/10/14 06:54:04;;;;;;;;;;;9.80;99.90;;;;;;5067903;28;19929;-78
2022/10/14 06:56:29;;;;;;;;;;;9.80;99.90;;;;;;5072442;28;19924;-75
2022/10/14 06:58:55;;;;;;;;;;;9.90;99.90;;;;;;5062972;28;20384;-76
2022/10/14 07:01:21;;;;;;;;;;;9.90;99.90;;;;;;5053140;28;19932;-76
2022/10/14 07:03:47;;;;;;;;;;;9.90;99.90;;;;;;5070824;28;19971;-77
2022/10/14 07:06:13;;;;;;;;;;;9.90;99.90;;;;;;5105749;28;19928;-77
2022/10/14 07:08:38;;;;;;;;;;;10.00;99.90;;;;;;5072383;28;19924;-77
2022/10/14 07:11:04;;;;;;;;;;;9.90;99.90;;;;;;5071828;28;19931;-76
2022/10/14 07:13:30;;;;;;;;;;;10.00;99.90;;;;;;5070240;28;19928;-76
2022/10/14 07:15:56;;;;;;;;;;;10.00;99.90;;;;;;5070612;28;20464;-76
2022/10/14 07:18:21;;;;;;;;;;;10.00;99.90;;;;;;5071674;28;19924;-76
2022/10/14 07:20:47;;;;;;;;;;;10.00;99.90;;;;;;5071201;28;20628;-76
2022/10/14 07:23:13;;;;;;;;;;;10.00;99.90;;;;;;5070384;28;20033;-77
2022/10/14 07:25:38;;;;;;;;;;;10.00;99.90;;;;;;5069560;28;19932;-76
2022/10/14 07:28:04;;;;;;;;;;;10.00;99.90;;;;;;5072720;28;20027;-77
2022/10/14 07:30:30;;;;;;;;;;;10.10;99.90;;;;;;5070894;28;19924;-76
2022/10/14 07:32:57;;;;;;;;;;;10.00;99.90;;;;;;5072516;28;19924;-76
2022/10/14 07:35:24;;;;;;;;;;;10.10;99.90;;;;;;5070857;28;19936;-77
2022/10/14 07:37:50;;;;;;;;;;;10.10;99.90;;;;;;5050084;28;19928;-76
2022/10/14 07:40:15;;;;;;;;;;;10.10;99.90;;;;;;5071266;28;20277;-77
2022/10/14 07:42:41;;;;;;;;;;;10.10;99.90;;;;;;5071280;28;20023;-79
2022/10/14 07:45:07;;;;;;;;;;;10.20;99.90;;;;;;5071155;28;19929;-76
2022/10/14 07:47:33;;;;;;;;;;;10.30;99.90;;;;;;5062658;28;20897;-78
2022/10/14 07:49:59;;;;;;;;;;;10.30;99.90;;;;;;5052132;28;19976;-77
2022/10/14 07:52:24;;;;;;;;;;;10.30;99.90;;;;;;5050785;28;20358;-76
2022/10/14 07:54:50;;;;;;;;;;;10.30;99.90;;;;;;5054556;28;19997;-76
2022/10/14 07:57:16;;;;;;;;;;;10.30;99.90;;;;;;5070013;28;19947;-76
2022/10/14 07:59:41;;;;;;;;;;;10.40;99.90;;;;;;5070532;28;19924;-77
2022/10/14 08:02:07;;;;;;;;;;;10.40;99.90;;;;;;5103131;28;19925;-76
2022/10/14 08:04:32;;;;;;;;;;;10.50;99.90;;;;;;5087744;28;19935;-76
2022/10/14 08:06:58;;;;;;;;;;;10.40;99.90;;;;;;5057046;28;19929;-77
2022/10/14 08:09:24;;;;;;;;;;;10.50;99.90;;;;;;5084573;28;19925;-76
2022/10/14 08:11:49;;;;;;;;;;;10.50;99.90;;;;;;5084163;28;20428;-78
2022/10/14 08:14:15;;;;;;;;;;;10.50;99.90;;;;;;5082215;28;19979;-76
2022/10/14 08:16:41;;;;;;;;;;;10.60;99.90;;;;;;5062783;28;19931;-76
2022/10/14 08:19:08;;;;;;;;;;;10.60;99.90;;;;;;5071102;28;19928;-77
2022/10/14 08:21:33;;;;;;;;;;;10.70;99.90;;;;;;5063927;28;20026;-76
2022/10/14 08:23:59;;;;;;;;;;;10.70;99.90;;;;;;5061375;28;19970;-77
2022/10/14 08:26:35;;;;;;;;;;;10.70;99.90;;;;;;5093074;28;19932;-75
2022/10/14 08:29:02;;;;;;;;;;;10.80;99.90;;;;;;5055322;28;19925;-79
2022/10/14 08:31:28;;;;;;;;;;;10.90;99.90;;;;;;5103065;28;19980;-78
2022/10/14 08:33:54;;;;;;;;;;;11.00;99.90;;;;;;5067666;28;19924;-76
2022/10/14 08:36:19;;;;;;;;;;;11.10;99.90;;;;;;5091374;28;19924;-76
2022/10/14 08:38:45;;;;;;;;;;;11.20;99.90;;;;;;5074255;28;20010;-75
2022/10/14 08:41:11;;;;;;;;;;;11.40;99.90;;;;;;5057294;28;19969;-76
2022/10/14 08:43:39;;;;;;;;;;;11.40;99.90;;;;;;5073452;28;19928;-76
2022/10/14 08:46:10;;;;;;;;;;;11.50;99.90;;;;;;5072138;28;20011;-78
2022/10/14 08:48:36;;;;;;;;;;;11.60;99.90;;;;;;5056832;28;19924;-78
2022/10/14 08:51:03;;;;;;;;;;;11.70;99.90;;;;;;5073080;28;20451;-79
2022/10/14 08:53:33;;;;;;;;;;;11.70;99.90;;;;;;5069182;28;19975;-76
2022/10/14 08:55:59;;;;;;;;;;;11.80;99.90;;;;;;5085093;28;19925;-75
2022/10/14 08:58:44;;;;;;;;;;;11.80;99.90;;;;;;5066601;28;19924;-76
2022/10/14 09:01:14;;;;;;;;;;;11.80;99.90;;;;;;5069238;28;20415;-74
2022/10/14 09:03:40;;;;;;;;;;;11.80;99.90;;;;;;5093079;28;19932;-76
2022/10/14 09:06:10;;;;;;;;;;;11.90;99.90;;;;;;5059811;28;20018;-78
2022/10/14 09:08:41;;;;;;;;;;;11.90;99.90;;;;;;5074712;28;19932;-75
2022/10/14 09:11:10;;;;;;;;;;;12.00;99.90;;;;;;5093677;28;19955;-77
2022/10/14 09:13:38;;;;;;;;;;;12.10;99.90;;;;;;5093880;28;19959;-75
2022/10/14 09:16:23;;;;;;;;;;;12.00;99.90;;;;;;5091733;28;19987;-76
2022/10/14 09:18:54;;;;;;;;;;;12.00;99.90;;;;;;5094280;28;19963;-75
2022/10/14 09:21:25;;;;;;;;;;;12.00;99.90;;;;;;5070744;28;19924;-75
2022/10/14 09:23:56;;;;;;;;;;;12.10;99.90;;;;;;5100384;28;19924;-75
2022/10/14 09:26:21;;;;;;;;;;;12.20;99.90;;;;;;5108302;28;19936;-75
2022/10/14 09:28:49;;;;;;;;;;;12.30;99.90;;;;;;5094123;28;19946;-76
2022/10/14 09:31:14;;;;;;;;;;;12.30;99.90;;;;;;5075669;28;19924;-76
2022/10/14 09:33:41;;;;;;;;;;;12.40;99.90;;;;;;5082030;28;20449;-75
2022/10/14 09:36:25;;;;;;;;;;;12.40;99.90;;;;;;5056189;28;19971;-77
2022/10/14 09:38:52;;;;;;;;;;;12.40;99.90;;;;;;5057171;28;19932;-74
2022/10/14 09:41:28;;;;;;;;;;;12.50;99.90;;;;;;5075286;28;19977;-75
2022/10/14 09:44:12;;;;;;;;;;;12.50;99.90;;;;;;5073378;28;19928;-75
2022/10/14 09:46:38;;;;;;;;;;;12.60;99.90;;;;;;5074101;28;19951;-75
2022/10/14 09:49:03;;;;;;;;;;;12.70;99.90;;;;;;5108340;28;20371;-77
2022/10/14 09:51:31;;;;;;;;;;;12.70;99.90;;;;;;5072013;28;19932;-76
2022/10/14 09:53:58;;;;;;;;;;;12.70;99.90;;;;;;5074364;28;19928;-76
2022/10/14 09:56:26;;;;;;;;;;;12.60;99.90;;;;;;5094509;28;19928;-75
2022/10/14 09:58:55;;;;;;;;;;;12.60;99.90;;;;;;5110410;28;19964;-76
2022/10/14 10:01:22;;;;;;;;;;;12.60;99.90;;;;;;5076162;28;20278;-76
2022/10/14 10:03:49;;;;;;;;;;;12.60;99.90;;;;;;5093659;28;19935;-76
2022/10/14 10:06:25;;;;;;;;;;;12.60;99.90;;;;;;5075925;28;19997;-76
2022/10/14 10:08:54;;;;;;;;;;;12.60;99.90;;;;;;5093700;28;19931;-76
2022/10/14 10:11:36;;;;;;;;;;;12.60;99.90;;;;;;5059641;28;19924;-76
2022/10/14 10:14:21;;;;;;;;;;;12.60;99.90;;;;;;5093300;28;19967;-75
2022/10/14 10:16:46;;;;;;;;;;;12.60;99.90;;;;;;5075897;28;20379;-77
2022/10/14 10:19:26;;;;;;;;;;;12.50;99.90;;;;;;5093150;28;19930;-75
2022/10/14 10:21:51;;;;;;;;;;;12.60;99.90;;;;;;5074348;28;20333;-76
2022/10/14 10:24:20;;;;;;;;;;;12.60;99.90;;;;;;5089897;28;19928;-76
2022/10/14 10:26:46;;;;;;;;;;;12.60;99.90;;;;;;5055733;28;20568;-76
2022/10/14 10:29:30;;;;;;;;;;;12.60;99.90;;;;;;5061036;28;19924;-75
2022/10/14 10:32:12;;;;;;;;;;;12.60;99.90;;;;;;5108003;28;19930;-78
2022/10/14 10:34:43;;;;;;;;;;;12.70;99.90;;;;;;5092642;28;19924;-76
2022/10/14 10:37:23;;;;;;;;;;;12.70;99.90;;;;;;5075187;28;19931;-75
2022/10/14 10:39:49;;;;;;;;;;;12.70;99.90;;;;;;5074181;28;19924;-74
2022/10/14 10:42:14;;;;;;;;;;;12.80;99.90;;;;;;5073193;28;19924;-75
2022/10/14 10:44:57;;;;;;;;;;;12.90;99.90;;;;;;5075289;28;19931;-77
2022/10/14 10:47:30;;;;;;;;;;;13.00;99.90;;;;;;5093658;28;19935;-75
2022/10/14 10:50:07;;;;;;;;;;;13.00;99.90;;;;;;5058128;28;19931;-75
2022/10/14 10:52:33;;;;;;;;;;;13.10;99.90;;;;;;5050495;28;20262;-80
2022/10/14 10:55:10;;;;;;;;;;;13.20;99.90;;;;;;5058298;28;19935;-75
2022/10/14 10:57:52;;;;;;;;;;;13.30;99.90;;;;;;5074257;28;19924;-76
2022/10/14 11:00:21;;;;;;;;;;;13.30;99.90;;;;;;5038829;28;19928;-76
2022/10/14 11:03:06;;;;;;;;;;;13.40;99.90;;;;;;5069660;28;19939;-75
2022/10/14 11:05:41;;;;;;;;;;;13.40;99.90;;;;;;5074023;28;19924;-75
2022/10/14 11:14:07;;;;;;;;;;;13.40;99.90;;;;;;5092346;28;19928;-75
2022/10/14 11:16:38;;;;;;;;;;;13.40;99.90;;;;;;5091687;28;19931;-76
2022/10/14 11:19:23;;;;;;;;;;;13.40;99.90;;;;;;5057326;28;19974;-75
2022/10/14 11:22:18;;;;;;;;;;;13.40;99.90;;;;;;5072095;28;19939;-75
2022/10/14 11:25:05;;;;;;;;;;;13.30;99.90;;;;;;5066365;28;19994;-76
2022/10/14 11:27:37;;;;;;;;;;;13.30;99.90;;;;;;5069942;28;19924;-75
2022/10/14 11:30:12;;;;;;;;;;;13.40;99.90;;;;;;5074654;28;20589;-75
2022/10/14 11:32:41;;;;;;;;;;;13.50;99.90;;;;;;5079541;28;19971;-75
2022/10/14 11:35:06;;;;;;;;;;;13.60;99.90;;;;;;5072963;28;19932;-76
2022/10/14 11:37:45;;;;;;;;;;;13.60;99.90;;;;;;5050604;28;19924;-75
2022/10/14 11:40:17;;;;;;;;;;;13.60;99.90;;;;;;5061196;28;19967;-75
2022/10/14 11:42:52;;;;;;;;;;;13.50;99.90;;;;;;5065662;28;19936;-76
2022/10/14 11:45:29;;;;;;;;;;;13.50;99.90;;;;;;5063104;28;19928;-75
2022/10/14 11:48:03;;;;;;;;;;;13.50;99.90;;;;;;5073448;28;19931;-76
2022/10/14 11:50:32;;;;;;;;;;;13.50;99.90;;;;;;5092084;28;20407;-75
2022/10/14 11:53:07;;;;;;;;;;;13.50;99.90;;;;;;5073712;28;20439;-76
2022/10/14 11:55:36;;;;;;;;;;;13.40;99.90;;;;;;5074509;28;19930;-75
2022/10/14 11:58:09;;;;;;;;;;;13.40;99.90;;;;;;5074200;28;20257;-75
2022/10/14 12:00:35;;;;;;;;;;;13.40;99.90;;;;;;5055661;28;19928;-77
2022/10/14 12:03:20;;;;;;;;;;;13.40;99.90;;;;;;5087277;28;20283;-76
2022/10/14 12:05:55;;;;;;;;;;;13.50;99.90;;;;;;5068652;28;19939;-76
2022/10/14 12:08:24;;;;;;;;;;;13.50;99.90;;;;;;5089519;28;19924;-76
2022/10/14 12:10:52;;;;;;;;;;;13.50;99.90;;;;;;5071051;28;20029;-76
2022/10/14 12:13:19;;;;;;;;;;;13.50;99.90;;;;;;5071387;28;19928;-76
2022/10/14 12:15:49;;;;;;;;;;;13.40;99.90;;;;;;5089375;28;19950;-78
2022/10/14 12:18:15;;;;;;;;;;;13.50;99.90;;;;;;5091263;28;19924;-75
2022/10/14 12:20:55;;;;;;;;;;;13.50;99.90;;;;;;5108312;28;19930;-76
2022/10/14 12:23:30;;;;;;;;;;;13.50;99.90;;;;;;5091944;28;20006;-76
2022/10/14 12:26:01;;;;;;;;;;;13.50;99.90;;;;;;5090085;28;20379;-78
2022/10/14 12:28:27;;;;;;;;;;;13.50;99.90;;;;;;5105044;28;19928;-76
2022/10/14 12:31:13;;;;;;;;;;;13.50;99.90;;;;;;5086684;28;19950;-76
2022/10/14 12:33:58;;;;;;;;;;;13.50;99.90;;;;;;5093189;28;19928;-76
2022/10/14 12:36:30;;;;;;;;;;;13.50;99.90;;;;;;5074912;28;19931;-76
2022/10/14 12:39:15;;;;;;;;;;;13.50;99.90;;;;;;5088407;28;19931;-75
2022/10/14 12:41:46;;;;;;;;;;;13.50;99.90;;;;;;5084667;28;19935;-77
2022/10/14 12:44:13;;;;;;;;;;;13.50;99.90;;;;;;5075294;28;19975;-76
2022/10/14 12:46:46;;;;;;;;;;;13.50;99.90;;;;;;5075223;28;20010;-77
2022/10/14 12:49:17;;;;;;;;;;;13.50;99.90;;;;;;5057688;28;19936;-76
2022/10/14 12:51:55;;;;;;;;;;;13.50;99.90;;;;;;5074464;28;19991;-74
2022/10/14 12:54:21;;;;;;;;;;;13.40;99.90;;;;;;5091930;28;19924;-76
2022/10/14 12:57:05;;;;;;;;;;;13.40;99.90;;;;;;5074226;28;20023;-76
2022/10/14 12:59:36;;;;;;;;;;;13.40;99.90;;;;;;5075615;28;19928;-76
2022/10/14 13:02:12;;;;;;;;;;;13.40;99.90;;;;;;5094790;28;20114;-76
2022/10/14 13:04:45;;;;;;;;;;;13.40;99.90;;;;;;5094474;28;19938;-75
2022/10/14 13:07:17;;;;;;;;;;;13.40;99.90;;;;;;5095545;28;19927;-75
2022/10/14 13:09:45;;;;;;;;;;;13.40;99.90;;;;;;5081483;28;19989;-75
2022/10/14 13:12:17;;;;;;;;;;;13.40;99.90;;;;;;5057841;28;20032;-78
2022/10/14 13:15:06;;;;;;;;;;;13.40;99.90;;;;;;5074546;28;19939;-77
2022/10/14 13:17:41;;;;;;;;;;;13.50;99.90;;;;;;5081300;28;19928;-76
2022/10/14 13:20:25;;;;;;;;;;;13.50;99.90;;;;;;5072161;28;19924;-78
2022/10/14 13:22:51;;;;;;;;;;;13.50;99.90;;;;;;5072199;28;20315;-76
2022/10/14 13:25:18;;;;;;;;;;;13.60;99.90;;;;;;5105947;27;19932;-77
2022/10/14 13:28:07;;;;;;;;;;;13.60;99.90;;;;;;5074672;28;19967;-76
2022/10/14 13:30:35;;;;;;;;;;;13.60;99.90;;;;;;5092418;28;19970;-77
2022/10/14 13:33:14;;;;;;;;;;;13.70;99.90;;;;;;5107184;28;19928;-76
2022/10/14 13:35:55;;;;;;;;;;;13.70;99.90;;;;;;5073663;28;20252;-76
2022/10/14 13:38:22;;;;;;;;;;;13.70;99.90;;;;;;5056201;28;19973;-76
2022/10/14 13:40:50;;;;;;;;;;;13.70;99.90;;;;;;5106817;27;20334;-78
2022/10/14 13:43:21;;;;;;;;;;;13.80;99.90;;;;;;5071951;28;19928;-76
2022/10/14 13:45:49;;;;;;;;;;;13.80;99.90;;;;;;5071920;28;19932;-82
2022/10/14 13:48:17;;;;;;;;;;;13.80;99.90;;;;;;5066564;28;20444;-78
2022/10/14 13:50:43;;;;;;;;;;;13.80;99.90;;;;;;5092699;28;20018;-78
2022/10/14 13:53:26;;;;;;;;;;;13.80;99.90;;;;;;5041283;28;19925;-76
2022/10/14 13:55:52;;;;;;;;;;;13.80;99.90;;;;;;5073409;28;20279;-76
2022/10/14 13:58:19;;;;;;;;;;;13.80;99.90;;;;;;5073122;28;19928;-78
2022/10/14 14:00:59;;;;;;;;;;;13.80;99.90;;;;;;5073626;28;19930;-77
2022/10/14 14:03:28;;;;;;;;;;;13.80;99.90;;;;;;5072949;28;19981;-78
2022/10/14 14:05:54;;;;;;;;;;;13.80;99.90;;;;;;5073284;28;19951;-76
2022/10/14 14:08:26;;;;;;;;;;;13.80;99.90;;;;;;5073966;28;19946;-76
2022/10/14 14:10:54;;;;;;;;;;;13.80;99.90;;;;;;5090296;28;20406;-75
2022/10/14 14:13:20;;;;;;;;;;;13.80;99.90;;;;;;5091041;28;19932;-76
2022/10/14 14:15:49;;;;;;;;;;;13.80;99.90;;;;;;5056883;28;19935;-77
2022/10/14 14:18:25;;;;;;;;;;;13.80;99.90;;;;;;5073794;28;20330;-78
2022/10/14 14:20:56;;;;;;;;;;;13.80;99.90;;;;;;5090025;28;20410;-77
2022/10/14 14:23:22;;;;;;;;;;;13.80;99.90;;;;;;5073182;28;20352;-75
2022/10/14 14:25:48;;;;;;;;;;;13.80;99.90;;;;;;5072312;28;20005;-76
2022/10/14 14:28:14;;;;;;;;;;;13.80;99.90;;;;;;5073438;28;20607;-76
2022/10/14 14:30:41;;;;;;;;;;;13.80;99.90;;;;;;5073267;28;20280;-76
2022/10/14 14:33:09;;;;;;;;;;;13.90;99.90;;;;;;5072236;28;19928;-78
2022/10/14 14:35:35;;;;;;;;;;;13.90;99.90;;;;;;5095486;28;20471;-76
2022/10/14 14:38:01;;;;;;;;;;;13.80;99.90;;;;;;5072861;28;19972;-76
2022/10/14 14:40:27;;;;;;;;;;;13.90;99.90;;;;;;5067425;28;19955;-78